EXS025A EGPF-LEPA
Flight info
| Callsign | EXS025A |
|---|---|
| Flight time | N/A |
| Altitude | 39000 |
| Route | NORBO T256 ROVLA UT256 DCS UL612 HON DCT SITET UN859 SOPIL DCT BALAN DCT EVPOK DCT NARAK DCT GAI DCT LOMRA DCT ROCAN DCT IBRAP N13 LORES |
| Aircraft | B737/M-SDE2E3FGHIRWXY/LB1 |
Departure
| Time | 2026-04-27 16:57 |
|---|---|
| Airport | Glasgow Airport (EGPF) |
Arrival
| Time | N/A |
|---|---|
| Airport | Palma de Mallorca Airport (LEPA) |
| Time | Latitude | Longitude | Altitude | Speed | Heading |
|---|---|---|---|---|---|
| 2026-04-27 16:36 | 55.86713 | -4.43369 | 32 ft | 0 kts | 237° |
| 2026-04-27 16:46 | 55.86713 | -4.43368 | 32 ft | 1 kts | 237° |
| 2026-04-27 16:46 | 55.86721 | -4.43346 | 32 ft | 2 kts | 237° |
| 2026-04-27 16:47 | 55.86730 | -4.43321 | 32 ft | 2 kts | 235° |
| 2026-04-27 16:47 | 55.86741 | -4.43300 | 32 ft | 2 kts | 197° |
| 2026-04-27 16:47 | 55.86753 | -4.43299 | 30 ft | 1 kts | 152° |
| 2026-04-27 16:47 | 55.86755 | -4.43301 | 31 ft | 0 kts | 150° |
| 2026-04-27 16:49 | 55.86749 | -4.43302 | 30 ft | 2 kts | 187° |
| 2026-04-27 16:49 | 55.86746 | -4.43328 | 30 ft | 3 kts | 285° |
| 2026-04-27 16:50 | 55.86762 | -4.43375 | 32 ft | 6 kts | 300° |
| 2026-04-27 16:50 | 55.86772 | -4.43454 | 32 ft | 8 kts | 255° |
| 2026-04-27 16:50 | 55.86756 | -4.43560 | 32 ft | 10 kts | 252° |
| 2026-04-27 16:50 | 55.86732 | -4.43693 | 31 ft | 12 kts | 252° |
| 2026-04-27 16:51 | 55.86701 | -4.43803 | 32 ft | 7 kts | 228° |
| 2026-04-27 16:51 | 55.86661 | -4.43882 | 32 ft | 10 kts | 228° |
| 2026-04-27 16:51 | 55.86607 | -4.43976 | 32 ft | 12 kts | 223° |
| 2026-04-27 16:51 | 55.86545 | -4.44090 | 32 ft | 14 kts | 227° |
| 2026-04-27 16:52 | 55.86504 | -4.44175 | 32 ft | 1 kts | 230° |
| 2026-04-27 16:52 | 55.86492 | -4.44197 | 32 ft | 4 kts | 225° |
| 2026-04-27 16:52 | 55.86468 | -4.44241 | 32 ft | 6 kts | 225° |
| 2026-04-27 16:52 | 55.86430 | -4.44307 | 32 ft | 9 kts | 225° |
| 2026-04-27 16:53 | 55.86384 | -4.44399 | 32 ft | 11 kts | 231° |
| 2026-04-27 16:53 | 55.86327 | -4.44506 | 32 ft | 13 kts | 226° |
| 2026-04-27 16:53 | 55.86260 | -4.44629 | 32 ft | 14 kts | 226° |
| 2026-04-27 16:53 | 55.86243 | -4.44694 | 32 ft | 4 kts | 298° |
| 2026-04-27 16:54 | 55.86268 | -4.44747 | 32 ft | 7 kts | 309° |
| 2026-04-27 16:54 | 55.86303 | -4.44807 | 32 ft | 2 kts | 317° |
| 2026-04-27 16:54 | 55.86319 | -4.44834 | 32 ft | 4 kts | 317° |
| 2026-04-27 16:54 | 55.86340 | -4.44861 | 33 ft | 4 kts | 339° |
| 2026-04-27 16:55 | 55.86373 | -4.44852 | 33 ft | 6 kts | 30° |
| 2026-04-27 16:55 | 55.86408 | -4.44790 | 33 ft | 8 kts | 47° |
| 2026-04-27 16:55 | 55.86425 | -4.44758 | 33 ft | 0 kts | 46° |
| 2026-04-27 16:55 | 55.86426 | -4.44756 | 33 ft | 0 kts | 46° |
| 2026-04-27 16:56 | 55.86429 | -4.44750 | 33 ft | 1 kts | 46° |
| 2026-04-27 16:56 | 55.86605 | -4.44494 | 37 ft | 49 kts | 49° |
| 2026-04-27 16:56 | 55.86878 | -4.43922 | 34 ft | 83 kts | 47° |
| 2026-04-27 16:56 | 55.87392 | -4.42947 | 33 ft | 145 kts | 46° |
| 2026-04-27 16:57 | 55.88172 | -4.41327 | 631 ft | 183 kts | 51° |
| 2026-04-27 16:57 | 55.89026 | -4.39600 | 1746 ft | 200 kts | 45° |
| 2026-04-27 16:57 | 55.90077 | -4.37722 | 2505 ft | 222 kts | 45° |
| 2026-04-27 16:57 | 55.91177 | -4.35737 | 3526 ft | 220 kts | 45° |
| 2026-04-27 16:58 | 55.92161 | -4.33939 | 3787 ft | 196 kts | 45° |
| 2026-04-27 16:58 | 55.93236 | -4.32444 | 3788 ft | 199 kts | 27° |
| 2026-04-27 16:58 | 55.94592 | -4.31620 | 3980 ft | 220 kts | 7° |
| 2026-04-27 16:58 | 55.96158 | -4.31777 | 4717 ft | 232 kts | 343° |
| 2026-04-27 16:59 | 55.97587 | -4.33146 | 5564 ft | 236 kts | 318° |
| 2026-04-27 16:59 | 55.98502 | -4.35527 | 5915 ft | 236 kts | 288° |
| 2026-04-27 16:59 | 55.98673 | -4.38441 | 5994 ft | 239 kts | 260° |
| 2026-04-27 16:59 | 55.98111 | -4.41213 | 6015 ft | 239 kts | 242° |
| 2026-04-27 17:00 | 55.97097 | -4.44667 | 6315 ft | 235 kts | 243° |
| 2026-04-27 17:00 | 55.95858 | -4.49137 | 6958 ft | 243 kts | 244° |
| 2026-04-27 17:00 | 55.95013 | -4.51739 | 7322 ft | 243 kts | 234° |
| 2026-04-27 17:01 | 55.93994 | -4.54138 | 7705 ft | 243 kts | 232° |
| 2026-04-27 17:01 | 55.92953 | -4.56524 | 8071 ft | 243 kts | 232° |
| 2026-04-27 17:01 | 55.91907 | -4.58954 | 8474 ft | 259 kts | 233° |
| 2026-04-27 17:01 | 55.90760 | -4.61646 | 8894 ft | 281 kts | 233° |
| 2026-04-27 17:02 | 55.89550 | -4.64445 | 9273 ft | 288 kts | 228° |
| 2026-04-27 17:02 | 55.87975 | -4.66608 | 9645 ft | 285 kts | 212° |
| 2026-04-27 17:02 | 55.86290 | -4.68493 | 10016 ft | 286 kts | 212° |
| 2026-04-27 17:02 | 55.84602 | -4.70375 | 10387 ft | 287 kts | 212° |
| 2026-04-27 17:03 | 55.82908 | -4.72261 | 10757 ft | 288 kts | 212° |
| 2026-04-27 17:03 | 55.81781 | -4.73515 | 11006 ft | 289 kts | 212° |
| 2026-04-27 17:03 | 55.79936 | -4.74930 | 11348 ft | 293 kts | 189° |
| 2026-04-27 17:03 | 55.77905 | -4.75179 | 11765 ft | 294 kts | 182° |
| 2026-04-27 17:04 | 55.75846 | -4.75269 | 12139 ft | 297 kts | 181° |
| 2026-04-27 17:04 | 55.73775 | -4.75349 | 12513 ft | 299 kts | 182° |
| 2026-04-27 17:04 | 55.71692 | -4.75447 | 12894 ft | 301 kts | 182° |
| 2026-04-27 17:04 | 55.69567 | -4.75562 | 13273 ft | 302 kts | 182° |
| 2026-04-27 17:05 | 55.67485 | -4.75688 | 13643 ft | 304 kts | 182° |
| 2026-04-27 17:05 | 55.65322 | -4.75827 | 14042 ft | 316 kts | 182° |
| 2026-04-27 17:05 | 55.63074 | -4.75974 | 14446 ft | 334 kts | 182° |
| 2026-04-27 17:05 | 55.60698 | -4.76111 | 14820 ft | 340 kts | 179° |
| 2026-04-27 17:06 | 55.58440 | -4.75200 | 15153 ft | 341 kts | 153° |
| 2026-04-27 17:06 | 55.56491 | -4.72810 | 15571 ft | 342 kts | 140° |
| 2026-04-27 17:06 | 55.54714 | -4.70009 | 15945 ft | 344 kts | 137° |
| 2026-04-27 17:06 | 55.52944 | -4.67141 | 16319 ft | 346 kts | 138° |
| 2026-04-27 17:07 | 55.51137 | -4.64315 | 16694 ft | 348 kts | 139° |
| 2026-04-27 17:07 | 55.49288 | -4.61538 | 17070 ft | 350 kts | 140° |
| 2026-04-27 17:07 | 55.47407 | -4.58795 | 17501 ft | 350 kts | 141° |
| 2026-04-27 17:07 | 55.45517 | -4.56084 | 18003 ft | 351 kts | 141° |
| 2026-04-27 17:08 | 55.43601 | -4.53357 | 18519 ft | 358 kts | 141° |
| 2026-04-27 17:08 | 55.41649 | -4.50588 | 19025 ft | 365 kts | 141° |
| 2026-04-27 17:08 | 55.39665 | -4.47779 | 19532 ft | 366 kts | 141° |
| 2026-04-27 17:08 | 55.37692 | -4.44928 | 20018 ft | 367 kts | 140° |
| 2026-04-27 17:09 | 55.35729 | -4.42019 | 20522 ft | 370 kts | 140° |
| 2026-04-27 17:09 | 55.33767 | -4.39093 | 21023 ft | 372 kts | 140° |
| 2026-04-27 17:09 | 55.31788 | -4.36144 | 21524 ft | 374 kts | 140° |
| 2026-04-27 17:09 | 55.29798 | -4.33190 | 22020 ft | 376 kts | 140° |
| 2026-04-27 17:10 | 55.27787 | -4.30214 | 22530 ft | 382 kts | 140° |
| 2026-04-27 17:10 | 55.25723 | -4.27168 | 23049 ft | 393 kts | 140° |
| 2026-04-27 17:10 | 55.23609 | -4.24053 | 23561 ft | 402 kts | 140° |
| 2026-04-27 17:10 | 55.21445 | -4.20870 | 24075 ft | 410 kts | 140° |
| 2026-04-27 17:11 | 55.19243 | -4.17635 | 24578 ft | 417 kts | 140° |
| 2026-04-27 17:11 | 55.14749 | -4.11051 | 25485 ft | 425 kts | 140° |
| 2026-04-27 17:11 | 55.12593 | -4.07504 | 25941 ft | 425 kts | 134° |
| 2026-04-27 17:12 | 55.08539 | -4.00023 | 26938 ft | 424 kts | 133° |
| 2026-04-27 17:12 | 55.06516 | -3.96265 | 27433 ft | 424 kts | 133° |
| 2026-04-27 17:12 | 55.04492 | -3.92531 | 27934 ft | 423 kts | 134° |
| 2026-04-27 17:13 | 55.02463 | -3.88815 | 28417 ft | 423 kts | 134° |
| 2026-04-27 17:13 | 55.00438 | -3.85123 | 28920 ft | 422 kts | 134° |
| 2026-04-27 17:13 | 54.98409 | -3.81435 | 29415 ft | 421 kts | 134° |
| 2026-04-27 17:13 | 54.96385 | -3.77761 | 29910 ft | 420 kts | 134° |
| 2026-04-27 17:14 | 54.94363 | -3.74099 | 30404 ft | 419 kts | 134° |
| 2026-04-27 17:14 | 54.92349 | -3.70448 | 30899 ft | 418 kts | 134° |
| 2026-04-27 17:14 | 54.90341 | -3.66806 | 31393 ft | 416 kts | 134° |
| 2026-04-27 17:14 | 54.88343 | -3.63181 | 31887 ft | 415 kts | 134° |
| 2026-04-27 17:15 | 54.86348 | -3.59569 | 32379 ft | 413 kts | 134° |
| 2026-04-27 17:15 | 54.84365 | -3.55982 | 32871 ft | 412 kts | 134° |
| 2026-04-27 17:15 | 54.82383 | -3.52404 | 33364 ft | 410 kts | 134° |
| 2026-04-27 17:15 | 54.80408 | -3.48843 | 33855 ft | 407 kts | 134° |
| 2026-04-27 17:16 | 54.78453 | -3.45322 | 34234 ft | 404 kts | 134° |
| 2026-04-27 17:16 | 54.76511 | -3.41830 | 34575 ft | 401 kts | 134° |
| 2026-04-27 17:16 | 54.74564 | -3.38338 | 34875 ft | 405 kts | 134° |
| 2026-04-27 17:16 | 54.72475 | -3.35050 | 35170 ft | 409 kts | 143° |
| 2026-04-27 17:17 | 54.70078 | -3.32373 | 35477 ft | 412 kts | 153° |
| 2026-04-27 17:17 | 54.67471 | -3.30303 | 35798 ft | 414 kts | 156° |
| 2026-04-27 17:17 | 54.64812 | -3.28345 | 36081 ft | 418 kts | 157° |
| 2026-04-27 17:18 | 54.59402 | -3.24419 | 36582 ft | 425 kts | 157° |
| 2026-04-27 17:18 | 54.56676 | -3.22417 | 36837 ft | 428 kts | 157° |
| 2026-04-27 17:18 | 54.53926 | -3.20380 | 37085 ft | 431 kts | 157° |
| 2026-04-27 17:18 | 54.51162 | -3.18322 | 37334 ft | 433 kts | 157° |
| 2026-04-27 17:19 | 54.48394 | -3.16257 | 37582 ft | 436 kts | 156° |
| 2026-04-27 17:19 | 54.45607 | -3.14178 | 37834 ft | 438 kts | 156° |
| 2026-04-27 17:19 | 54.42812 | -3.12097 | 38087 ft | 439 kts | 157° |
| 2026-04-27 17:19 | 54.40001 | -3.10007 | 38331 ft | 441 kts | 157° |
| 2026-04-27 17:20 | 54.37178 | -3.07912 | 38581 ft | 442 kts | 157° |
| 2026-04-27 17:20 | 54.34354 | -3.05820 | 38834 ft | 443 kts | 157° |
| 2026-04-27 17:20 | 54.31524 | -3.03726 | 39007 ft | 445 kts | 157° |
| 2026-04-27 17:20 | 54.28663 | -3.01613 | 38989 ft | 449 kts | 157° |
| 2026-04-27 17:21 | 54.22921 | -2.97382 | 38999 ft | 449 kts | 157° |
| 2026-04-27 17:21 | 54.17183 | -2.93185 | 39006 ft | 449 kts | 157° |